sensor_id;sensor_type;location;lat;lon;timestamp;pressure;altitude;pressure_sealevel;temperature;humidity
69198;BME280;56311;50.298;8.514;2022-11-20T16:50:47;96876.97;;;4.24;100.00
69198;BME280;56311;50.298;8.514;2022-11-20T16:53:15;96879.91;;;4.12;100.00
69198;BME280;56311;50.298;8.514;2022-11-20T16:55:42;96879.09;;;4.06;100.00
69198;BME280;56311;50.298;8.514;2022-11-20T16:58:08;96879.66;;;4.03;100.00
69198;BME280;56311;50.298;8.514;2022-11-20T17:00:36;96879.63;;;3.98;100.00
69198;BME280;56311;50.298;8.514;2022-11-20T17:03:03;62402.38;;;-147.88;100.00
69198;BME280;56311;50.298;8.514;2022-11-20T17:05:30;62402.38;;;-147.88;100.00
69198;BME280;56311;50.298;8.514;2022-11-20T17:07:59;62402.38;;;-147.88;100.00
69198;BME280;56311;50.298;8.514;2022-11-20T17:10:26;62402.38;;;-147.88;100.00
69198;BME280;56311;50.298;8.514;2022-11-20T17:12:56;96879.63;;;3.98;100.00
69198;BME280;56311;50.298;8.514;2022-11-20T17:15:23;96868.03;;;3.51;100.00
69198;BME280;56311;50.298;8.514;2022-11-20T17:17:49;96871.25;;;3.53;100.00
69198;BME280;56311;50.298;8.514;2022-11-20T17:20:16;96854.41;;;3.47;100.00
69198;BME280;56311;50.298;8.514;2022-11-20T17:22:43;96846.63;;;3.46;100.00
69198;BME280;56311;50.298;8.514;2022-11-20T17:25:11;96841.84;;;3.43;100.00
69198;BME280;56311;50.298;8.514;2022-11-20T17:27:38;96839.97;;;3.43;100.00
69198;BME280;56311;50.298;8.514;2022-11-20T17:30:05;96834.88;;;3.42;100.00
69198;BME280;56311;50.298;8.514;2022-11-20T17:32:32;96837.78;;;3.40;100.00
69198;BME280;56311;50.298;8.514;2022-11-20T17:34:59;96828.72;;;3.41;100.00
69198;BME280;56311;50.298;8.514;2022-11-20T17:37:26;96831.94;;;3.43;100.00
69198;BME280;56311;50.298;8.514;2022-11-20T17:39:52;96833.28;;;3.41;100.00
69198;BME280;56311;50.298;8.514;2022-11-20T17:42:21;96833.00;;;3.42;100.00
69198;BME280;56311;50.298;8.514;2022-11-20T17:44:55;96825.53;;;3.44;100.00
69198;BME280;56311;50.298;8.514;2022-11-20T17:47:24;96823.91;;;3.48;100.00
69198;BME280;56311;50.298;8.514;2022-11-20T17:49:51;96823.66;;;3.50;100.00
69198;BME280;56311;50.298;8.514;2022-11-20T17:52:19;96809.22;;;3.56;100.00
69198;BME280;56311;50.298;8.514;2022-11-20T17:54:45;96806.00;;;3.64;100.00
69198;BME280;56311;50.298;8.514;2022-11-20T17:57:12;96801.47;;;3.65;100.00
69198;BME280;56311;50.298;8.514;2022-11-20T17:59:59;96795.06;;;3.66;100.00
69198;BME280;56311;50.298;8.514;2022-11-20T18:02:27;96802.53;;;3.69;100.00
69198;BME280;56311;50.298;8.514;2022-11-20T18:04:54;96790.50;;;3.66;100.00
69198;BME280;56311;50.298;8.514;2022-11-20T18:07:20;96780.34;;;3.69;100.00
69198;BME280;56311;50.298;8.514;2022-11-20T18:09:48;96777.41;;;3.70;100.00
69198;BME280;56311;50.298;8.514;2022-11-20T18:12:15;96776.88;;;3.73;100.00
69198;BME280;56311;50.298;8.514;2022-11-20T18:14:42;96770.19;;;3.76;100.00
69198;BME280;56311;50.298;8.514;2022-11-20T18:17:12;96759.75;;;3.79;100.00
69198;BME280;56311;50.298;8.514;2022-11-20T18:19:41;96759.75;;;3.79;100.00
69198;BME280;56311;50.298;8.514;2022-11-20T18:22:28;96752.00;;;3.78;100.00
69198;BME280;56311;50.298;8.514;2022-11-20T18:24:55;96748.50;;;3.77;100.00
69198;BME280;56311;50.298;8.514;2022-11-20T18:27:21;96740.22;;;3.74;100.00
69198;BME280;56311;50.298;8.514;2022-11-20T18:29:49;96739.94;;;3.75;100.00
69198;BME280;56311;50.298;8.514;2022-11-20T18:32:20;96734.88;;;3.74;100.00
69198;BME280;56311;50.298;8.514;2022-11-20T18:34:47;96739.94;;;3.75;100.00
69198;BME280;56311;50.298;8.514;2022-11-20T18:37:14;96731.13;;;3.75;100.00
69198;BME280;56311;50.298;8.514;2022-11-20T18:39:42;96730.84;;;3.76;100.00
69198;BME280;56311;50.298;8.514;2022-11-20T18:42:11;96718.81;;;3.74;100.00
69198;BME280;56311;50.298;8.514;2022-11-20T18:44:57;96709.72;;;3.75;100.00
69198;BME280;56311;50.298;8.514;2022-11-20T18:47:29;96708.38;;;3.77;100.00
69198;BME280;56311;50.298;8.514;2022-11-20T18:49:58;96702.75;;;3.74;100.00
69198;BME280;56311;50.298;8.514;2022-11-20T18:52:27;96698.47;;;3.73;100.00
69198;BME280;56311;50.298;8.514;2022-11-20T18:54:55;96696.09;;;3.71;100.00
69198;BME280;56311;50.298;8.514;2022-11-20T18:57:24;96688.31;;;3.75;100.00
69198;BME280;56311;50.298;8.514;2022-11-20T18:59:52;96684.84;;;3.74;100.00
69198;BME280;56311;50.298;8.514;2022-11-20T19:02:20;96683.22;;;3.78;100.00
69198;BME280;56311;50.298;8.514;2022-11-20T19:04:48;96688.59;;;3.78;100.00
69198;BME280;56311;50.298;8.514;2022-11-20T19:07:15;96685.63;;;3.80;100.00
69198;BME280;56311;50.298;8.514;2022-11-20T19:09:44;96682.16;;;3.79;100.00
69198;BME280;56311;50.298;8.514;2022-11-20T19:12:13;96686.16;;;3.82;100.00
69198;BME280;56311;50.298;8.514;2022-11-20T19:14:39;96688.31;;;3.80;100.00
69198;BME280;56311;50.298;8.514;2022-11-20T19:17:07;96681.91;;;3.76;100.00
69198;BME280;56311;50.298;8.514;2022-11-20T19:19:36;96672.00;;;3.71;100.00
69198;BME280;56311;50.298;8.514;2022-11-20T19:22:04;96674.44;;;3.62;100.00
69198;BME280;56311;50.298;8.514;2022-11-20T19:24:31;96665.59;;;3.62;100.00
69198;BME280;56311;50.298;8.514;2022-11-20T19:26:58;96676.84;;;3.59;100.00
69198;BME280;56311;50.298;8.514;2022-11-20T19:29:27;96671.50;;;3.59;100.00
69198;BME280;56311;50.298;8.514;2022-11-20T19:31:56;96674.97;;;3.54;100.00
69198;BME280;56311;50.298;8.514;2022-11-20T19:34:23;96657.06;;;3.49;100.00
69198;BME280;56311;50.298;8.514;2022-11-20T19:36:51;96656.00;;;3.45;100.00
69198;BME280;56311;50.298;8.514;2022-11-20T19:39:20;96644.22;;;3.36;100.00
69198;BME280;56311;50.298;8.514;2022-11-20T19:41:48;96637.28;;;3.35;100.00
69198;BME280;56311;50.298;8.514;2022-11-20T19:44:15;96633.81;;;3.34;100.00
69198;BME280;56311;50.298;8.514;2022-11-20T19:46:43;96642.09;;;3.38;100.00
69198;BME280;56311;50.298;8.514;2022-11-20T19:49:11;96617.50;;;3.36;100.00
69198;BME280;56311;50.298;8.514;2022-11-20T19:51:44;96623.63;;;3.37;100.00
69198;BME280;56311;50.298;8.514;2022-11-20T19:54:11;96614.81;;;3.36;100.00
69198;BME280;56311;50.298;8.514;2022-11-20T19:56:39;96610.00;;;3.38;100.00
69198;BME280;56311;50.298;8.514;2022-11-20T19:59:06;96609.47;;;3.46;100.00
69198;BME280;56311;50.298;8.514;2022-11-20T20:01:33;96607.31;;;3.59;100.00
69198;BME280;56311;50.298;8.514;2022-11-20T20:04:01;96605.69;;;3.58;100.00
69198;BME280;56311;50.298;8.514;2022-11-20T20:06:29;62402.38;;;-147.88;100.00
69198;BME280;56311;50.298;8.514;2022-11-20T20:08:57;62402.38;;;-147.88;100.00
69198;BME280;56311;50.298;8.514;2022-11-20T20:11:26;62402.38;;;-147.88;100.00
69198;BME280;56311;50.298;8.514;2022-11-20T20:13:55;62402.38;;;-147.88;100.00
69198;BME280;56311;50.298;8.514;2022-11-20T20:16:24;62402.38;;;-147.88;100.00
69198;BME280;56311;50.298;8.514;2022-11-20T20:18:54;62402.38;;;-147.88;100.00
69198;BME280;56311;50.298;8.514;2022-11-20T20:21:21;62402.38;;;-147.88;100.00
69198;BME280;56311;50.298;8.514;2022-11-20T20:23:49;96594.41;;;3.76;100.00
69198;BME280;56311;50.298;8.514;2022-11-20T20:26:16;96575.94;;;3.80;100.00
69198;BME280;56311;50.298;8.514;2022-11-20T20:28:43;96581.03;;;3.81;100.00
69198;BME280;56311;50.298;8.514;2022-11-20T20:31:13;96586.41;;;3.81;100.00
69198;BME280;56311;50.298;8.514;2022-11-20T20:33:41;96584.78;;;3.80;100.00
69198;BME280;56311;50.298;8.514;2022-11-20T20:36:10;96585.31;;;3.77;100.00
69198;BME280;56311;50.298;8.514;2022-11-20T20:38:37;96589.06;;;3.76;100.00
69198;BME280;56311;50.298;8.514;2022-11-20T20:41:06;96578.09;;;3.83;100.00
69198;BME280;56311;50.298;8.514;2022-11-20T20:43:34;96575.69;;;3.81;100.00
69198;BME280;56311;50.298;8.514;2022-11-20T20:46:22;96577.00;;;3.79;100.00
69198;BME280;56311;50.298;8.514;2022-11-20T20:48:49;96584.78;;;3.80;100.00
69198;BME280;56311;50.298;8.514;2022-11-20T20:51:23;96580.50;;;3.79;100.00
69198;BME280;56311;50.298;8.514;2022-11-20T20:53:51;96587.44;;;3.75;100.00
69198;BME280;56311;50.298;8.514;2022-11-20T20:56:18;96587.19;;;3.82;100.00
69198;BME280;56311;50.298;8.514;2022-11-20T20:58:45;96594.69;;;3.85;100.00
69198;BME280;56311;50.298;8.514;2022-11-20T21:01:14;96586.66;;;3.80;100.00
69198;BME280;56311;50.298;8.514;2022-11-20T21:03:44;96588.53;;;3.79;100.00
69198;BME280;56311;50.298;8.514;2022-11-20T21:06:11;96591.75;;;3.81;100.00
69198;BME280;56311;50.298;8.514;2022-11-20T21:08:38;96591.75;;;3.81;100.00
69198;BME280;56311;50.298;8.514;2022-11-20T21:11:08;96599.75;;;3.87;100.00
69198;BME280;56311;50.298;8.514;2022-11-20T21:13:37;96585.28;;;3.88;100.00
69198;BME280;56311;50.298;8.514;2022-11-20T21:16:04;96581.03;;;3.81;100.00
69198;BME280;56311;50.298;8.514;2022-11-20T21:18:32;96582.09;;;3.86;100.00
69198;BME280;56311;50.298;8.514;2022-11-20T21:21:02;96574.03;;;3.91;100.00
69198;BME280;56311;50.298;8.514;2022-11-20T21:23:48;96568.19;;;3.89;100.00
69198;BME280;56311;50.298;8.514;2022-11-20T21:26:15;96572.44;;;3.90;100.00
69198;BME280;56311;50.298;8.514;2022-11-20T21:28:42;96568.97;;;3.89;100.00
69198;BME280;56311;50.298;8.514;2022-11-20T21:31:10;96567.88;;;3.90;100.00
69198;BME280;56311;50.298;8.514;2022-11-20T21:33:40;96571.34;;;3.91;100.00
69198;BME280;56311;50.298;8.514;2022-11-20T21:36:09;96579.38;;;3.96;100.00
69198;BME280;56311;50.298;8.514;2022-11-20T21:38:37;96581.53;;;3.94;100.00
69198;BME280;56311;50.298;8.514;2022-11-20T21:41:05;96577.78;;;3.95;100.00
69198;BME280;56311;50.298;8.514;2022-11-20T21:43:32;96577.78;;;3.95;100.00
69198;BME280;56311;50.298;8.514;2022-11-20T21:46:00;96572.44;;;3.95;100.00
69198;BME280;56311;50.298;8.514;2022-11-20T21:48:28;96576.16;;;3.99;100.00
69198;BME280;56311;50.298;8.514;2022-11-20T21:50:56;96576.94;;;4.05;100.00
69198;BME280;56311;50.298;8.514;2022-11-20T21:53:34;96570.75;;;4.04;100.00
69198;BME280;56311;50.298;8.514;2022-11-20T21:56:03;96561.16;;;4.03;100.00
69198;BME280;56311;50.298;8.514;2022-11-20T21:58:32;96561.94;;;4.04;100.00
69198;BME280;56311;50.298;8.514;2022-11-20T22:00:59;96555.25;;;4.06;100.00
69198;BME280;56311;50.298;8.514;2022-11-20T22:03:32;96559.50;;;4.12;100.00
69198;BME280;56311;50.298;8.514;2022-11-20T22:05:59;96566.72;;;4.12;100.00
69198;BME280;56311;50.298;8.514;2022-11-20T22:08:26;96565.09;;;4.16;100.00
69198;BME280;56311;50.298;8.514;2022-11-20T22:10:55;96552.53;;;4.17;100.00
69198;BME280;56311;50.298;8.514;2022-11-20T22:13:23;96557.63;;;4.13;100.00
69198;BME280;56311;50.298;8.514;2022-11-20T22:16:08;96562.72;;;4.09;100.00
69198;BME280;56311;50.298;8.514;2022-11-20T22:18:40;96560.97;;;4.34;100.00
69198;BME280;56311;50.298;8.514;2022-11-20T22:21:08;96558.75;;;4.46;100.00
69198;BME280;56311;50.298;8.514;2022-11-20T22:23:35;96562.91;;;4.28;100.00
69198;BME280;56311;50.298;8.514;2022-11-20T22:26:04;96558.91;;;4.21;100.00
69198;BME280;56311;50.298;8.514;2022-11-20T22:28:31;96565.91;;;4.17;100.00
69198;BME280;56311;50.298;8.514;2022-11-20T22:30:59;96561.34;;;4.17;100.00
69198;BME280;56311;50.298;8.514;2022-11-20T22:33:26;96553.84;;;4.19;100.00
69198;BME280;56311;50.298;8.514;2022-11-20T22:35:59;96558.69;;;4.12;100.00
69198;BME280;56311;50.298;8.514;2022-11-20T22:38:26;96556.81;;;4.18;100.00
69198;BME280;56311;50.298;8.514;2022-11-20T22:41:00;96546.09;;;4.12;100.00
69198;BME280;56311;50.298;8.514;2022-11-20T22:43:29;96557.88;;;4.17;100.00
69198;BME280;56311;50.298;8.514;2022-11-20T22:46:02;96557.09;;;4.11;100.00
69198;BME280;56311;50.298;8.514;2022-11-20T22:48:31;96571.00;;;4.13;100.00
69198;BME280;56311;50.298;8.514;2022-11-20T22:51:02;96555.22;;;4.11;100.00
69198;BME280;56311;50.298;8.514;2022-11-20T22:53:30;96565.69;;;4.03;100.00
69198;BME280;56311;50.298;8.514;2022-11-20T22:55:56;96567.03;;;4.00;100.00
69198;BME280;56311;50.298;8.514;2022-11-20T22:58:23;96569.72;;;4.00;100.00
69198;BME280;56311;50.298;8.514;2022-11-20T23:00:51;96575.06;;;4.00;100.00
69198;BME280;56311;50.298;8.514;2022-11-20T23:03:18;96573.44;;;4.04;100.00
69198;BME280;56311;50.298;8.514;2022-11-20T23:05:45;96559.56;;;4.02;100.00
69198;BME280;56311;50.298;8.514;2022-11-20T23:08:12;96554.41;;;4.11;100.00
69198;BME280;56311;50.298;8.514;2022-11-20T23:10:39;96552.78;;;4.15;100.00
69198;BME280;56311;50.298;8.514;2022-11-20T23:13:06;96571.53;;;4.15;100.00
69198;BME280;56311;50.298;8.514;2022-11-20T23:15:33;96569.69;;;4.05;100.00
69198;BME280;56311;50.298;8.514;2022-11-20T23:18:01;96566.22;;;4.05;100.00
69198;BME280;56311;50.298;8.514;2022-11-20T23:20:28;96567.56;;;4.07;100.00
69198;BME280;56311;50.298;8.514;2022-11-20T23:22:55;96565.69;;;4.03;100.00
69198;BME280;56311;50.298;8.514;2022-11-20T23:25:21;96568.38;;;4.03;100.00
69198;BME280;56311;50.298;8.514;2022-11-20T23:27:48;96565.94;;;4.06;100.00
69198;BME280;56311;50.298;8.514;2022-11-20T23:30:15;96554.69;;;4.04;100.00
69198;BME280;56311;50.298;8.514;2022-11-20T23:32:42;96555.25;;;4.06;100.00
69198;BME280;56311;50.298;8.514;2022-11-20T23:35:10;96545.34;;;4.07;100.00
69198;BME280;56311;50.298;8.514;2022-11-20T23:37:37;96552.56;;;4.06;100.00
69198;BME280;56311;50.298;8.514;2022-11-20T23:40:05;96571.28;;;4.06;100.00
69198;BME280;56311;50.298;8.514;2022-11-20T23:42:31;96555.19;;;4.17;100.00
69198;BME280;56311;50.298;8.514;2022-11-20T23:44:59;96561.06;;;4.19;100.00
69198;BME280;56311;50.298;8.514;2022-11-20T23:47:25;96561.38;;;4.12;100.00
69198;BME280;56311;50.298;8.514;2022-11-20T23:49:52;96566.50;;;4.03;100.00
69198;BME280;56311;50.298;8.514;2022-11-20T23:52:20;96564.34;;;4.05;100.00
69198;BME280;56311;50.298;8.514;2022-11-20T23:54:47;96560.84;;;4.10;100.00
69198;BME280;56311;50.298;8.514;2022-11-20T23:57:15;96552.81;;;4.10;100.00
69198;BME280;56311;50.298;8.514;2022-11-20T23:59:42;96556.56;;;4.09;100.00
